createdAt,value
2022-10-11T00:00:16.898Z,77.08
2022-10-11T00:02:44.462Z,76.90
2022-10-11T00:05:13.574Z,77.27
2022-10-11T00:07:41.155Z,76.84
2022-10-11T00:10:10.651Z,77.13
2022-10-11T00:12:38.394Z,77.28
2022-10-11T00:15:07.357Z,77.79
2022-10-11T00:17:35.871Z,77.46
2022-10-11T00:20:03.475Z,77.48
2022-10-11T00:22:32.433Z,77.62
2022-10-11T00:25:00.313Z,77.70
2022-10-11T00:27:28.269Z,77.96
2022-10-11T00:29:55.912Z,77.82
2022-10-11T00:32:23.731Z,77.73
2022-10-11T00:34:51.357Z,77.77
2022-10-11T00:37:19.347Z,78.12
2022-10-11T00:39:48.437Z,77.28
2022-10-11T00:42:17.792Z,77.09
2022-10-11T00:44:48.069Z,77.27
2022-10-11T00:47:18.682Z,76.84
2022-10-11T00:49:52.249Z,77.15
2022-10-11T00:52:29.017Z,76.96
2022-10-11T00:54:59.178Z,77.16
2022-10-11T00:57:31.196Z,77.52
2022-10-11T00:59:59.735Z,77.68
2022-10-11T01:02:30.269Z,77.29
2022-10-11T01:05:25.277Z,77.50
2022-10-11T01:07:48.335Z,77.27
2022-10-11T01:10:17.454Z,77.00
2022-10-11T01:12:56.186Z,76.80
2022-10-11T01:15:32.653Z,76.68
2022-10-11T01:18:07.086Z,77.36
2022-10-11T01:20:46.602Z,77.15
2022-10-11T01:23:41.549Z,78.12
2022-10-11T01:26:43.037Z,79.04
2022-10-11T01:29:20.783Z,77.97
2022-10-11T01:31:56.593Z,78.24
2022-10-11T01:34:32.365Z,78.24
2022-10-11T01:37:06.752Z,77.93
2022-10-11T01:39:39.358Z,77.44
2022-10-11T01:42:10.849Z,76.98
2022-10-11T01:44:40.460Z,76.75
2022-10-11T01:47:09.450Z,77.10
2022-10-11T01:49:37.047Z,76.20
2022-10-11T01:52:06.779Z,76.28
2022-10-11T01:55:10.459Z,76.11
2022-10-11T01:58:02.394Z,76.31
2022-10-11T02:00:40.403Z,76.17
2022-10-11T02:03:20.637Z,76.36
2022-10-11T02:05:52.914Z,76.59
2022-10-11T02:08:27.077Z,77.05
2022-10-11T02:11:01.604Z,77.62
2022-10-11T02:13:33.552Z,77.80
2022-10-11T02:16:05.836Z,77.50
2022-10-11T02:18:39.217Z,77.67
2022-10-11T02:21:11.451Z,78.16
2022-10-11T02:23:43.484Z,78.69
2022-10-11T02:26:13.682Z,78.81
2022-10-11T02:28:44.992Z,78.72
2022-10-11T02:31:14.052Z,78.97
2022-10-11T02:33:47.722Z,79.31
2022-10-11T02:36:21.893Z,79.75
2022-10-11T02:38:53.960Z,79.92
2022-10-11T02:41:27.092Z,79.60
2022-10-11T02:44:00.045Z,79.37
2022-10-11T02:46:30.474Z,78.95
2022-10-11T02:49:00.913Z,78.88
2022-10-11T02:51:31.878Z,78.31
2022-10-11T02:53:59.792Z,77.87
2022-10-11T02:56:27.485Z,77.68
2022-10-11T02:58:55.100Z,76.62
2022-10-11T03:01:22.777Z,76.44
2022-10-11T03:03:50.660Z,75.98
2022-10-11T03:06:20.439Z,76.95
2022-10-11T03:08:48.071Z,77.26
2022-10-11T03:11:15.784Z,77.67
2022-10-11T03:13:43.386Z,77.93
2022-10-11T03:16:11.241Z,78.11
2022-10-11T03:18:39.071Z,77.20
2022-10-11T03:21:06.679Z,76.71
2022-10-11T03:23:35.589Z,75.80
2022-10-11T03:26:04.095Z,75.93
2022-10-11T03:28:32.036Z,76.64
2022-10-11T03:30:59.791Z,77.89
2022-10-11T03:33:27.537Z,78.57
2022-10-11T03:35:55.584Z,79.07
2022-10-11T03:38:26.051Z,78.78
2022-10-11T03:40:55.208Z,79.16
2022-10-11T03:43:22.788Z,79.48
2022-10-11T03:45:50.834Z,79.13
2022-10-11T03:48:18.439Z,79.06
2022-10-11T03:50:46.088Z,79.20
2022-10-11T03:53:13.706Z,79.09
2022-10-11T03:55:42.156Z,79.21
2022-10-11T03:58:11.187Z,78.54
2022-10-11T04:00:38.824Z,78.27
2022-10-11T04:03:06.400Z,78.39
2022-10-11T04:05:33.989Z,78.01
2022-10-11T04:08:01.637Z,78.22
2022-10-11T04:10:30.973Z,78.00
2022-10-11T04:12:58.650Z,78.07
2022-10-11T04:15:27.592Z,77.71
2022-10-11T04:17:55.168Z,78.06
2022-10-11T04:20:22.769Z,78.15
2022-10-11T04:22:50.463Z,77.61
2022-10-11T04:25:18.068Z,78.16
2022-10-11T04:27:45.638Z,78.42
2022-10-11T04:30:14.372Z,78.28
2022-10-11T04:32:43.640Z,77.71
2022-10-11T04:35:11.572Z,77.80
2022-10-11T04:37:39.459Z,77.38
2022-10-11T04:40:08.603Z,76.97
2022-10-11T04:42:36.270Z,77.22
2022-10-11T04:45:03.962Z,76.75
2022-10-11T04:47:31.659Z,77.25
2022-10-11T04:50:00.610Z,77.58
2022-10-11T04:52:28.213Z,76.94
2022-10-11T04:54:55.889Z,77.23
2022-10-11T04:57:23.464Z,77.55
2022-10-11T04:59:51.063Z,77.63
2022-10-11T05:02:18.752Z,77.76
2022-10-11T05:04:46.554Z,77.93
2022-10-11T05:07:15.599Z,78.06
2022-10-11T05:09:43.178Z,77.54
2022-10-11T05:12:10.810Z,77.72
2022-10-11T05:14:38.542Z,78.25
2022-10-11T05:17:06.158Z,78.79
2022-10-11T05:19:33.734Z,79.09
2022-10-11T05:22:01.730Z,79.64
2022-10-11T05:24:30.657Z,79.33
2022-10-11T05:27:02.409Z,79.93
2022-10-11T05:29:30.985Z,80.06
2022-10-11T05:31:58.554Z,79.78
2022-10-11T05:34:26.234Z,79.65
2022-10-11T05:36:53.854Z,79.61
2022-10-11T05:39:21.462Z,78.89
2022-10-11T05:41:51.782Z,79.04
2022-10-11T05:44:19.453Z,78.43
2022-10-11T05:46:47.208Z,78.34
2022-10-11T05:49:15.003Z,78.65
2022-10-11T05:51:42.582Z,78.99
2022-10-11T05:54:10.320Z,78.89
2022-10-11T05:56:37.932Z,78.83
2022-10-11T05:59:07.187Z,78.96
2022-10-11T06:01:34.891Z,79.33
2022-10-11T06:04:02.536Z,79.07
2022-10-11T06:06:30.165Z,78.91
2022-10-11T06:08:57.781Z,78.75
2022-10-11T06:11:28.286Z,78.68
2022-10-11T06:13:57.154Z,78.43
2022-10-11T06:16:26.304Z,78.83
2022-10-11T06:18:54.818Z,77.59
2022-10-11T06:21:22.914Z,76.83
2022-10-11T06:23:52.315Z,75.73
2022-10-11T06:26:21.361Z,75.60
2022-10-11T06:28:49.233Z,76.35
2022-10-11T06:31:16.902Z,76.18
2022-10-11T06:33:45.793Z,76.97
2022-10-11T06:36:15.078Z,75.96
2022-10-11T06:38:45.194Z,75.71
2022-10-11T06:41:16.985Z,75.57
2022-10-11T06:43:44.969Z,75.69
2022-10-11T06:46:13.197Z,75.77
2022-10-11T06:48:41.620Z,75.25
2022-10-11T06:51:10.916Z,75.05
2022-10-11T06:53:38.864Z,75.57
2022-10-11T06:56:09.283Z,75.48
2022-10-11T06:58:37.355Z,76.25
2022-10-11T07:01:07.864Z,76.39
2022-10-11T07:03:35.658Z,76.07
2022-10-11T07:06:04.096Z,76.33
2022-10-11T07:08:33.647Z,76.37
2022-10-11T07:11:02.150Z,75.96
2022-10-11T07:13:29.847Z,75.51
2022-10-11T07:15:57.593Z,75.26
2022-10-11T07:18:25.278Z,75.44
2022-10-11T07:20:52.845Z,75.63
2022-10-11T07:23:20.482Z,75.99
2022-10-11T07:25:49.867Z,76.03
2022-10-11T07:28:17.508Z,76.17
2022-10-11T07:30:45.061Z,76.66
2022-10-11T07:33:12.635Z,76.00
2022-10-11T07:35:42.082Z,75.62
2022-10-11T07:38:12.959Z,75.78
2022-10-11T07:40:43.102Z,76.01
2022-10-11T07:43:12.778Z,76.09
2022-10-11T07:45:41.321Z,74.68
2022-10-11T07:48:09.861Z,75.79
2022-10-11T07:50:37.718Z,76.00
2022-10-11T07:53:05.451Z,76.56
2022-10-11T07:55:40.071Z,76.29
2022-10-11T07:58:08.117Z,76.91
2022-10-11T08:00:37.608Z,77.24
2022-10-11T08:03:06.694Z,76.87
2022-10-11T08:05:34.855Z,75.89
2022-10-11T08:08:02.420Z,76.02
2022-10-11T08:10:30.148Z,76.21
2022-10-11T08:13:01.955Z,76.49
2022-10-11T08:15:31.801Z,76.45
2022-10-11T08:18:00.893Z,76.71
2022-10-11T08:20:31.099Z,77.09
2022-10-11T08:22:58.665Z,77.19
2022-10-11T08:25:26.406Z,77.41
2022-10-11T08:27:54.036Z,77.45
2022-10-11T08:30:21.786Z,77.07
2022-10-11T08:32:49.811Z,77.24
2022-10-11T08:35:18.902Z,77.39
2022-10-11T08:37:46.456Z,77.07
2022-10-11T08:40:17.119Z,76.93
2022-10-11T08:42:48.775Z,76.63
2022-10-11T08:45:25.980Z,74.78
2022-10-11T08:48:07.881Z,74.50
2022-10-11T08:50:37.768Z,75.39
2022-10-11T08:53:14.757Z,75.48
2022-10-11T08:55:45.740Z,75.53
2022-10-11T08:58:16.616Z,75.58
2022-10-11T09:00:48.311Z,74.47
2022-10-11T09:03:27.872Z,74.20
2022-10-11T09:06:13.222Z,74.64
2022-10-11T09:08:52.755Z,74.91
2022-10-11T09:11:33.250Z,75.31
2022-10-11T09:14:25.273Z,75.29
2022-10-11T09:17:03.379Z,74.97
2022-10-11T09:19:49.115Z,75.17
2022-10-11T09:22:30.426Z,75.09
2022-10-11T09:25:12.903Z,75.05
2022-10-11T09:28:02.417Z,74.94
2022-10-11T09:30:32.013Z,75.17
2022-10-11T09:33:09.774Z,74.80
2022-10-11T09:35:41.924Z,74.95
2022-10-11T09:38:19.430Z,74.42
2022-10-11T09:40:55.767Z,74.60
2022-10-11T09:43:23.364Z,75.00
2022-10-11T09:45:51.119Z,75.25
2022-10-11T09:48:22.744Z,74.44
2022-10-11T09:50:52.500Z,75.08
2022-10-11T09:53:21.968Z,74.92
2022-10-11T09:55:53.811Z,74.73
2022-10-11T09:58:28.019Z,75.10
2022-10-11T10:01:07.436Z,74.92
2022-10-11T10:03:36.846Z,74.81
2022-10-11T10:06:10.215Z,74.77
2022-10-11T10:08:39.414Z,74.68
2022-10-11T10:11:09.450Z,74.13
2022-10-11T10:13:49.892Z,73.88
2022-10-11T10:16:23.611Z,73.88
2022-10-11T10:18:53.597Z,74.40
2022-10-11T10:21:30.779Z,74.32
2022-10-11T10:24:04.099Z,74.32
2022-10-11T10:26:33.299Z,73.94
2022-10-11T10:29:18.503Z,73.80
2022-10-11T10:32:13.258Z,73.37
2022-10-11T10:34:51.570Z,71.04
2022-10-11T10:37:26.311Z,70.86
2022-10-11T10:40:00.595Z,71.96
2022-10-11T10:42:28.863Z,71.81
2022-10-11T10:44:59.389Z,70.84
2022-10-11T10:47:50.397Z,70.58
2022-10-11T10:50:22.650Z,70.94
2022-10-11T10:53:01.871Z,72.03
2022-10-11T10:55:38.504Z,72.05
2022-10-11T10:58:18.757Z,70.91
2022-10-11T11:00:49.768Z,69.96
2022-10-11T11:03:25.121Z,70.66
2022-10-11T11:06:01.996Z,70.45
2022-10-11T11:08:51.491Z,70.52
2022-10-11T11:11:32.322Z,71.19
2022-10-11T11:14:08.320Z,71.63
2022-10-11T11:16:44.639Z,71.94
2022-10-11T11:19:25.068Z,71.99
2022-10-11T11:22:00.148Z,71.62
2022-10-11T11:24:40.856Z,72.17
2022-10-11T11:27:18.688Z,72.35
2022-10-11T11:29:56.740Z,72.45
2022-10-11T11:32:35.749Z,72.31
2022-10-11T11:35:06.912Z,72.39
2022-10-11T11:37:38.227Z,72.18
2022-10-11T11:40:15.374Z,72.43
2022-10-11T11:42:48.953Z,71.93
2022-10-11T11:45:22.385Z,71.73
2022-10-11T11:47:55.506Z,71.73
2022-10-11T11:50:27.312Z,71.98
2022-10-11T11:53:00.020Z,72.14
2022-10-11T11:55:33.698Z,72.37
2022-10-11T11:58:13.930Z,71.78
2022-10-11T12:01:03.627Z,72.06
2022-10-11T12:03:41.584Z,71.87
2022-10-11T12:06:29.479Z,72.14
2022-10-11T12:09:04.018Z,71.72
2022-10-11T12:11:46.914Z,70.42
2022-10-11T12:14:27.695Z,70.99
2022-10-11T12:17:20.885Z,70.91
2022-10-11T12:20:15.609Z,70.82
2022-10-11T12:22:56.098Z,70.90
2022-10-11T12:25:40.055Z,70.62
2022-10-11T12:29:00.673Z,70.74
2022-10-11T12:31:31.478Z,70.60
2022-10-11T12:34:34.631Z,68.18
2022-10-11T12:37:37.181Z,68.78
2022-10-11T12:40:33.529Z,68.06
2022-10-11T12:43:11.863Z,68.07
2022-10-11T12:45:39.456Z,68.67
2022-10-11T12:48:34.062Z,69.08
2022-10-11T12:51:23.872Z,69.47
2022-10-11T12:54:28.337Z,69.76
2022-10-11T12:57:17.079Z,69.85
2022-10-11T12:59:46.449Z,69.87
2022-10-11T13:02:28.865Z,70.23
2022-10-11T13:05:09.167Z,70.32
2022-10-11T13:07:37.161Z,69.85
2022-10-11T13:10:06.257Z,70.15
2022-10-11T13:12:41.528Z,70.03
2022-10-11T13:15:15.429Z,70.38
2022-10-11T13:17:44.105Z,70.75
2022-10-11T13:20:19.568Z,71.00
2022-10-11T13:22:50.096Z,71.15
2022-10-11T13:25:20.359Z,71.01
2022-10-11T13:27:49.853Z,71.00
2022-10-11T13:30:20.267Z,70.93
2022-10-11T13:32:48.443Z,71.13
2022-10-11T13:35:25.380Z,71.20
2022-10-11T13:37:53.290Z,70.85
2022-10-11T13:40:23.084Z,70.86
2022-10-11T13:42:52.549Z,70.83
2022-10-11T13:45:22.611Z,70.62
2022-10-11T13:47:51.476Z,70.68
2022-10-11T13:50:32.135Z,70.43
2022-10-11T13:53:02.235Z,70.30
2022-10-11T13:55:33.476Z,70.16
2022-10-11T13:58:03.912Z,69.58
2022-10-11T14:00:38.797Z,70.07
2022-10-11T14:03:16.447Z,70.20
2022-10-11T14:05:54.681Z,70.47
2022-10-11T14:08:25.854Z,70.51
2022-10-11T14:10:59.381Z,70.57
2022-10-11T14:13:32.379Z,71.13
2022-10-11T14:16:02.400Z,71.35
2022-10-11T14:18:39.528Z,71.57
2022-10-11T14:21:27.548Z,71.51
2022-10-11T14:23:56.490Z,71.35
2022-10-11T14:26:25.564Z,71.56
2022-10-11T14:28:57.735Z,71.59
2022-10-11T14:31:28.109Z,71.71
2022-10-11T14:33:56.974Z,71.41
2022-10-11T14:36:26.283Z,71.08
2022-10-11T14:38:54.638Z,70.91
2022-10-11T14:41:22.349Z,70.94
2022-10-11T14:43:49.969Z,70.80
2022-10-11T14:46:23.201Z,70.46
2022-10-11T14:48:55.499Z,70.22
2022-10-11T14:51:30.551Z,70.13
2022-10-11T14:53:58.722Z,70.41
2022-10-11T14:56:26.421Z,69.96
2022-10-11T14:58:54.016Z,69.88
2022-10-11T15:01:21.715Z,70.05
2022-10-11T15:03:49.398Z,70.17
2022-10-11T15:06:20.059Z,70.46
2022-10-11T15:08:49.819Z,69.24
2022-10-11T15:11:21.118Z,69.37
2022-10-11T15:13:48.932Z,69.88
2022-10-11T15:16:19.962Z,70.30
2022-10-11T15:18:50.856Z,70.40
2022-10-11T15:21:20.194Z,70.48
2022-10-11T15:23:50.128Z,70.50
2022-10-11T15:26:19.626Z,70.76
2022-10-11T15:28:47.995Z,70.77
2022-10-11T15:31:15.778Z,71.02
2022-10-11T15:33:43.471Z,70.99
2022-10-11T15:36:15.223Z,71.25
2022-10-11T15:38:45.435Z,71.21
2022-10-11T15:41:15.644Z,71.36
2022-10-11T15:43:44.824Z,71.20
2022-10-11T15:46:15.147Z,71.37
2022-10-11T15:48:43.256Z,71.47
2022-10-11T15:51:11.323Z,71.34
2022-10-11T15:53:38.948Z,71.67
2022-10-11T15:56:09.474Z,71.55
2022-10-11T15:58:40.847Z,71.62
2022-10-11T16:01:10.363Z,71.61
2022-10-11T16:03:37.973Z,71.58
2022-10-11T16:06:06.085Z,71.59
2022-10-11T16:08:33.867Z,71.69
2022-10-11T16:13:29.853Z,71.17
2022-10-11T16:16:01.110Z,71.00
2022-10-11T16:18:34.140Z,71.19
2022-10-11T16:21:06.380Z,71.53
2022-10-11T16:23:34.261Z,71.70
2022-10-11T16:26:05.051Z,70.59
2022-10-11T16:28:33.225Z,69.92
2022-10-11T16:31:07.214Z,70.26
2022-10-11T16:33:34.863Z,70.98
2022-10-11T16:36:20.852Z,71.26
2022-10-11T16:38:48.414Z,71.37
2022-10-11T16:41:15.997Z,71.51
2022-10-11T16:43:43.614Z,70.98
2022-10-11T16:46:12.563Z,70.44
2022-10-11T16:48:40.134Z,70.53
2022-10-11T16:51:08.927Z,71.11
2022-10-11T16:53:36.770Z,71.23
2022-10-11T16:56:07.783Z,71.51
2022-10-11T16:58:36.328Z,71.64
2022-10-11T17:01:08.561Z,71.63
2022-10-11T17:03:38.115Z,71.47
2022-10-11T17:06:07.057Z,71.56
2022-10-11T17:08:35.264Z,71.62
2022-10-11T17:11:03.445Z,71.49
2022-10-11T17:13:31.235Z,71.06
2022-10-11T17:15:58.879Z,71.38
2022-10-11T17:18:26.748Z,71.52
2022-10-11T17:21:02.959Z,71.52
2022-10-11T17:23:30.711Z,71.63
2022-10-11T17:25:58.456Z,70.70
2022-10-11T17:28:26.408Z,71.39
2022-10-11T17:30:55.571Z,71.59
2022-10-11T17:33:23.387Z,71.61
2022-10-11T17:35:50.994Z,71.98
2022-10-11T17:38:20.804Z,71.25
2022-10-11T17:40:48.676Z,71.59
2022-10-11T17:43:16.738Z,72.02
2022-10-11T17:45:44.314Z,72.07
2022-10-11T17:48:11.926Z,72.32
2022-10-11T17:50:43.402Z,72.52
2022-10-11T17:53:12.514Z,72.52
2022-10-11T17:55:43.840Z,72.50
2022-10-11T17:58:18.542Z,72.86
2022-10-11T18:00:46.383Z,73.19
2022-10-11T18:03:14.004Z,73.55
2022-10-11T18:05:42.178Z,73.63
2022-10-11T18:08:11.044Z,74.10
2022-10-11T18:10:41.941Z,74.11
2022-10-11T18:13:15.410Z,74.42
2022-10-11T18:15:43.126Z,74.58
2022-10-11T18:18:11.863Z,74.74
2022-10-11T18:20:39.631Z,74.72
2022-10-11T18:23:07.251Z,75.00
2022-10-11T18:25:35.116Z,75.08
2022-10-11T18:28:02.686Z,75.17
2022-10-11T18:30:31.665Z,75.29
2022-10-11T18:32:59.279Z,75.45
2022-10-11T18:35:26.899Z,75.51
2022-10-11T18:38:00.062Z,75.16
2022-10-11T18:40:28.453Z,75.33
2022-10-11T18:42:56.106Z,75.34
2022-10-11T18:45:23.837Z,75.54
2022-10-11T18:47:52.807Z,74.87
2022-10-11T18:50:20.651Z,75.19
2022-10-11T18:52:56.972Z,74.99
2022-10-11T18:55:30.017Z,75.07
2022-10-11T18:58:01.437Z,74.77
2022-10-11T19:00:40.568Z,74.51
2022-10-11T19:03:10.190Z,75.03
2022-10-11T19:05:39.629Z,75.26
2022-10-11T19:08:09.970Z,74.78
2022-10-11T19:10:37.571Z,73.81
2022-10-11T19:13:05.292Z,74.42
2022-10-11T19:15:35.973Z,74.95
2022-10-11T19:18:07.877Z,75.03
2022-10-11T19:20:37.012Z,75.31
2022-10-11T19:23:04.634Z,75.79
2022-10-11T19:25:36.117Z,75.77
2022-10-11T19:28:03.801Z,76.30
2022-10-11T19:30:32.674Z,76.26
2022-10-11T19:33:00.782Z,76.31
2022-10-11T19:35:28.516Z,76.48
2022-10-11T19:37:57.632Z,76.03
2022-10-11T19:40:27.217Z,76.12
2022-10-11T19:42:56.614Z,75.98
2022-10-11T19:45:24.231Z,76.20
2022-10-11T19:47:51.801Z,76.31
2022-10-11T19:50:19.569Z,76.35
2022-10-11T19:52:47.175Z,76.33
2022-10-11T19:55:16.394Z,76.33
2022-10-11T19:57:44.074Z,76.57
2022-10-11T20:00:12.814Z,76.72
2022-10-11T20:02:40.435Z,76.79
2022-10-11T20:05:08.599Z,76.55
2022-10-11T20:07:36.607Z,76.07
2022-10-11T20:10:04.564Z,75.93
2022-10-11T20:12:34.070Z,76.29
2022-10-11T20:15:01.938Z,76.33
2022-10-11T20:17:48.199Z,76.58
2022-10-11T20:20:16.304Z,76.62
2022-10-11T20:22:43.936Z,76.74
2022-10-11T20:25:11.718Z,76.96
2022-10-11T20:27:42.484Z,76.97
2022-10-11T20:30:12.444Z,76.88
2022-10-11T20:32:40.115Z,76.54
2022-10-11T20:35:09.199Z,76.10
2022-10-11T20:37:37.470Z,76.55
2022-10-11T20:40:05.767Z,76.33
2022-10-11T20:42:33.323Z,76.16
2022-10-11T20:45:04.417Z,76.08
2022-10-11T20:47:32.398Z,75.58
2022-10-11T20:50:02.993Z,76.05
2022-10-11T20:52:30.986Z,76.42
2022-10-11T20:54:58.829Z,76.91
2022-10-11T20:57:28.334Z,76.93
2022-10-11T20:59:56.344Z,77.13
2022-10-11T21:02:25.269Z,77.07
2022-10-11T21:04:52.907Z,77.08
2022-10-11T21:07:20.519Z,77.32
2022-10-11T21:09:48.371Z,77.60
2022-10-11T21:12:15.972Z,77.25
2022-10-11T21:14:43.544Z,77.65
2022-10-11T21:17:11.525Z,77.06
2022-10-11T21:19:40.473Z,77.29
2022-10-11T21:22:08.047Z,77.24
2022-10-11T21:24:35.642Z,77.40
2022-10-11T21:27:03.251Z,77.52
2022-10-11T21:29:31.323Z,77.71
2022-10-11T21:31:59.017Z,78.15
2022-10-11T21:34:26.619Z,77.84
2022-10-11T21:36:55.574Z,77.91
2022-10-11T21:39:23.181Z,77.92
2022-10-11T21:41:50.806Z,78.21
2022-10-11T21:44:18.605Z,78.13
2022-10-11T21:47:07.175Z,78.17
2022-10-11T21:49:34.172Z,78.06
2022-10-11T21:52:03.149Z,78.04
2022-10-11T21:54:30.749Z,78.08
2022-10-11T21:56:58.441Z,78.35
2022-10-11T21:59:26.166Z,78.23
2022-10-11T22:01:55.992Z,78.36
2022-10-11T22:04:27.012Z,78.52
2022-10-11T22:06:54.613Z,78.63
2022-10-11T22:09:23.833Z,78.43
2022-10-11T22:11:51.512Z,78.17
2022-10-11T22:14:19.518Z,78.53
2022-10-11T22:16:47.094Z,78.19
2022-10-11T22:19:14.729Z,78.25
2022-10-11T22:21:45.098Z,78.55
2022-10-11T22:24:13.367Z,78.18
2022-10-11T22:26:42.342Z,78.53
2022-10-11T22:29:10.122Z,78.17
2022-10-11T22:31:37.965Z,78.40
2022-10-11T22:34:05.594Z,78.15
2022-10-11T22:36:33.689Z,78.36
2022-10-11T22:39:02.508Z,78.60
2022-10-11T22:41:30.057Z,78.60
2022-10-11T22:43:58.979Z,78.61
2022-10-11T22:46:26.803Z,78.78
2022-10-11T22:48:54.435Z,78.80
2022-10-11T22:51:21.991Z,78.90
2022-10-11T22:53:49.636Z,79.02
2022-10-11T22:56:17.194Z,78.99
2022-10-11T22:58:45.374Z,78.81
2022-10-11T23:01:15.857Z,79.02
2022-10-11T23:03:43.705Z,79.38
2022-10-11T23:06:11.402Z,79.37
2022-10-11T23:08:38.983Z,79.53
2022-10-11T23:11:07.922Z,79.67
2022-10-11T23:13:36.111Z,80.13
2022-10-11T23:16:07.177Z,79.71
2022-10-11T23:18:36.324Z,80.00
2022-10-11T23:21:05.200Z,79.98
2022-10-11T23:23:33.174Z,80.18
2022-10-11T23:26:05.572Z,79.94
2022-10-11T23:28:33.353Z,79.98
2022-10-11T23:31:01.907Z,79.94
2022-10-11T23:33:29.816Z,80.09
2022-10-11T23:35:58.822Z,79.73
2022-10-11T23:38:26.409Z,79.79
2022-10-11T23:40:54.024Z,79.86
2022-10-11T23:43:21.602Z,79.97
2022-10-11T23:45:49.414Z,79.95
2022-10-11T23:48:16.971Z,79.96
2022-10-11T23:50:44.558Z,80.21
2022-10-11T23:53:14.316Z,79.93
2022-10-11T23:55:43.085Z,79.82
2022-10-11T23:58:10.714Z,80.41
